Dragor, Denmark
Current Conditions -  °F | °C
As of 8:50 PM on Friday 24 Oct 2014 (Local Time) from EKCH Reporting Station
Broken Clouds Broken Clouds  
Wind Chill: 12°   Ceiling: 3700
Heat Index: 12°   Visibility: 6mi
Dew Point: 10°   Wind: 18mph
Humidity: 88%   Direction: 180°S
Pressure: 30.09"   Gusts: NA
Location:  55.59°N, 12.67°E
Report Text: EKCH 241850Z 18016KT 9999 SCT012 BKN037 12/10 Q1019 TEMPOBKN012
Loading
Personal Weather Stations






























Interactive Weather Map
Tropical Storm Tracking
New forecast layout! Learn more

10-Day Weather Forecast

Advertisements
Track Severe Weather on mobile